sensor_id;sensor_type;location;lat;lon;timestamp;temperature;humidity
20672;DHT22;10495;50.922;4.760;2023-08-01T00:02:11;19.20;93.00
20672;DHT22;10495;50.922;4.760;2023-08-01T00:04:37;19.40;92.90
20672;DHT22;10495;50.922;4.760;2023-08-01T00:07:02;19.30;92.80
20672;DHT22;10495;50.922;4.760;2023-08-01T00:09:28;19.30;92.90
20672;DHT22;10495;50.922;4.760;2023-08-01T00:11:54;19.20;92.90
20672;DHT22;10495;50.922;4.760;2023-08-01T00:14:20;19.20;93.00
20672;DHT22;10495;50.922;4.760;2023-08-01T00:16:52;19.20;92.80
20672;DHT22;10495;50.922;4.760;2023-08-01T00:19:18;19.00;92.80
20672;DHT22;10495;50.922;4.760;2023-08-01T00:21:44;19.00;92.90
20672;DHT22;10495;50.922;4.760;2023-08-01T00:24:09;19.00;92.90
20672;DHT22;10495;50.922;4.760;2023-08-01T00:26:35;19.00;92.80
20672;DHT22;10495;50.922;4.760;2023-08-01T00:29:01;18.90;92.90
20672;DHT22;10495;50.922;4.760;2023-08-01T00:31:27;18.80;92.90
20672;DHT22;10495;50.922;4.760;2023-08-01T00:33:52;18.90;92.60
20672;DHT22;10495;50.922;4.760;2023-08-01T00:36:18;19.00;92.50
20672;DHT22;10495;50.922;4.760;2023-08-01T00:38:44;19.00;92.40
20672;DHT22;10495;50.922;4.760;2023-08-01T00:41:10;18.80;92.50
20672;DHT22;10495;50.922;4.760;2023-08-01T00:43:36;18.80;92.60
20672;DHT22;10495;50.922;4.760;2023-08-01T00:46:05;18.70;92.70
20672;DHT22;10495;50.922;4.760;2023-08-01T00:48:31;18.60;92.80
20672;DHT22;10495;50.922;4.760;2023-08-01T00:51:04;18.70;92.80
20672;DHT22;10495;50.922;4.760;2023-08-01T00:53:31;18.70;92.90
20672;DHT22;10495;50.922;4.760;2023-08-01T00:55:58;18.80;92.50
20672;DHT22;10495;50.922;4.760;2023-08-01T00:58:24;18.80;92.30
20672;DHT22;10495;50.922;4.760;2023-08-01T01:00:50;18.70;92.50
20672;DHT22;10495;50.922;4.760;2023-08-01T01:03:17;18.70;92.60
20672;DHT22;10495;50.922;4.760;2023-08-01T01:06:13;18.60;92.80
20672;DHT22;10495;50.922;4.760;2023-08-01T01:08:41;18.60;92.80
20672;DHT22;10495;50.922;4.760;2023-08-01T01:11:07;18.50;92.80
20672;DHT22;10495;50.922;4.760;2023-08-01T01:13:33;18.70;92.70
20672;DHT22;10495;50.922;4.760;2023-08-01T01:15:59;18.70;92.60
20672;DHT22;10495;50.922;4.760;2023-08-01T01:18:25;18.70;92.70
20672;DHT22;10495;50.922;4.760;2023-08-01T01:20:51;18.60;92.70
20672;DHT22;10495;50.922;4.760;2023-08-01T01:23:16;18.60;92.80
20672;DHT22;10495;50.922;4.760;2023-08-01T01:25:43;18.70;92.60
20672;DHT22;10495;50.922;4.760;2023-08-01T01:28:10;18.50;92.70
20672;DHT22;10495;50.922;4.760;2023-08-01T01:30:35;18.40;92.90
20672;DHT22;10495;50.922;4.760;2023-08-01T01:33:02;18.40;92.90
20672;DHT22;10495;50.922;4.760;2023-08-01T01:35:29;18.40;93.00
20672;DHT22;10495;50.922;4.760;2023-08-01T01:37:54;18.30;93.10
20672;DHT22;10495;50.922;4.760;2023-08-01T01:40:20;18.30;93.10
20672;DHT22;10495;50.922;4.760;2023-08-01T01:42:46;18.30;93.10
20672;DHT22;10495;50.922;4.760;2023-08-01T01:45:13;18.20;93.10
20672;DHT22;10495;50.922;4.760;2023-08-01T01:47:39;18.30;93.00
20672;DHT22;10495;50.922;4.760;2023-08-01T01:50:05;18.40;92.90
20672;DHT22;10495;50.922;4.760;2023-08-01T01:52:31;18.40;92.80
20672;DHT22;10495;50.922;4.760;2023-08-01T01:54:58;18.30;92.80
20672;DHT22;10495;50.922;4.760;2023-08-01T01:57:24;18.30;92.90
20672;DHT22;10495;50.922;4.760;2023-08-01T01:59:49;18.40;92.90
20672;DHT22;10495;50.922;4.760;2023-08-01T02:02:15;18.50;92.90
20672;DHT22;10495;50.922;4.760;2023-08-01T02:04:41;18.50;92.50
20672;DHT22;10495;50.922;4.760;2023-08-01T02:07:06;18.40;92.70
20672;DHT22;10495;50.922;4.760;2023-08-01T02:09:32;18.30;92.80
20672;DHT22;10495;50.922;4.760;2023-08-01T02:11:58;18.50;92.40
20672;DHT22;10495;50.922;4.760;2023-08-01T02:14:23;18.50;92.50
20672;DHT22;10495;50.922;4.760;2023-08-01T02:16:49;18.50;92.50
20672;DHT22;10495;50.922;4.760;2023-08-01T02:19:14;18.40;92.50
20672;DHT22;10495;50.922;4.760;2023-08-01T02:21:40;18.30;92.70
20672;DHT22;10495;50.922;4.760;2023-08-01T02:24:06;18.40;92.80
20672;DHT22;10495;50.922;4.760;2023-08-01T02:26:31;18.30;92.80
20672;DHT22;10495;50.922;4.760;2023-08-01T02:28:57;18.20;92.80
20672;DHT22;10495;50.922;4.760;2023-08-01T02:31:22;18.30;92.60
20672;DHT22;10495;50.922;4.760;2023-08-01T02:33:48;18.30;92.70
20672;DHT22;10495;50.922;4.760;2023-08-01T02:36:14;18.30;92.70
20672;DHT22;10495;50.922;4.760;2023-08-01T02:38:39;18.40;92.50
20672;DHT22;10495;50.922;4.760;2023-08-01T02:41:05;18.40;92.60
20672;DHT22;10495;50.922;4.760;2023-08-01T02:43:31;18.30;92.60
20672;DHT22;10495;50.922;4.760;2023-08-01T02:45:56;18.30;92.50
20672;DHT22;10495;50.922;4.760;2023-08-01T02:48:24;18.20;92.60
20672;DHT22;10495;50.922;4.760;2023-08-01T02:50:50;18.20;92.70
20672;DHT22;10495;50.922;4.760;2023-08-01T02:53:16;18.20;92.70
20672;DHT22;10495;50.922;4.760;2023-08-01T02:55:41;18.30;92.60
20672;DHT22;10495;50.922;4.760;2023-08-01T02:58:07;18.40;92.50
20672;DHT22;10495;50.922;4.760;2023-08-01T03:00:33;18.30;92.60
20672;DHT22;10495;50.922;4.760;2023-08-01T03:02:58;18.30;92.70
20672;DHT22;10495;50.922;4.760;2023-08-01T03:05:24;18.20;92.60
20672;DHT22;10495;50.922;4.760;2023-08-01T03:07:49;18.30;92.60
20672;DHT22;10495;50.922;4.760;2023-08-01T03:10:15;18.30;92.30
20672;DHT22;10495;50.922;4.760;2023-08-01T03:12:41;18.30;92.40
20672;DHT22;10495;50.922;4.760;2023-08-01T03:15:07;18.40;92.10
20672;DHT22;10495;50.922;4.760;2023-08-01T03:17:34;18.40;92.10
20672;DHT22;10495;50.922;4.760;2023-08-01T03:20:00;18.40;92.20
20672;DHT22;10495;50.922;4.760;2023-08-01T03:22:25;18.40;92.20
20672;DHT22;10495;50.922;4.760;2023-08-01T03:24:51;18.40;92.00
20672;DHT22;10495;50.922;4.760;2023-08-01T03:27:17;18.30;92.10
20672;DHT22;10495;50.922;4.760;2023-08-01T03:29:43;18.20;92.00
20672;DHT22;10495;50.922;4.760;2023-08-01T03:32:08;18.30;92.10
20672;DHT22;10495;50.922;4.760;2023-08-01T03:34:34;18.20;92.30
20672;DHT22;10495;50.922;4.760;2023-08-01T03:37:00;18.20;92.10
20672;DHT22;10495;50.922;4.760;2023-08-01T03:39:25;18.20;92.00
20672;DHT22;10495;50.922;4.760;2023-08-01T03:41:51;18.00;92.20
20672;DHT22;10495;50.922;4.760;2023-08-01T03:44:16;18.00;92.30
20672;DHT22;10495;50.922;4.760;2023-08-01T03:46:43;18.10;92.20
20672;DHT22;10495;50.922;4.760;2023-08-01T03:49:08;18.00;92.20
20672;DHT22;10495;50.922;4.760;2023-08-01T03:51:34;17.90;92.20
20672;DHT22;10495;50.922;4.760;2023-08-01T03:54:00;18.10;91.90
20672;DHT22;10495;50.922;4.760;2023-08-01T03:56:26;18.20;91.90
20672;DHT22;10495;50.922;4.760;2023-08-01T03:58:52;18.30;91.80
20672;DHT22;10495;50.922;4.760;2023-08-01T04:01:18;18.20;91.70
20672;DHT22;10495;50.922;4.760;2023-08-01T04:03:44;18.10;91.80
20672;DHT22;10495;50.922;4.760;2023-08-01T04:06:09;18.10;91.80
20672;DHT22;10495;50.922;4.760;2023-08-01T04:08:36;18.00;91.80
20672;DHT22;10495;50.922;4.760;2023-08-01T04:11:02;17.90;92.00
20672;DHT22;10495;50.922;4.760;2023-08-01T04:13:27;18.10;91.80
20672;DHT22;10495;50.922;4.760;2023-08-01T04:15:53;18.10;91.70
20672;DHT22;10495;50.922;4.760;2023-08-01T04:18:18;18.00;91.90
20672;DHT22;10495;50.922;4.760;2023-08-01T04:20:44;18.20;91.60
20672;DHT22;10495;50.922;4.760;2023-08-01T04:23:09;18.20;91.60
20672;DHT22;10495;50.922;4.760;2023-08-01T04:25:35;18.20;91.50
20672;DHT22;10495;50.922;4.760;2023-08-01T04:28:01;18.10;91.80
20672;DHT22;10495;50.922;4.760;2023-08-01T04:30:26;18.00;91.90
20672;DHT22;10495;50.922;4.760;2023-08-01T04:32:52;17.90;92.10
20672;DHT22;10495;50.922;4.760;2023-08-01T04:35:18;18.00;92.10
20672;DHT22;10495;50.922;4.760;2023-08-01T04:37:43;18.00;92.00
20672;DHT22;10495;50.922;4.760;2023-08-01T04:40:09;18.00;92.20
20672;DHT22;10495;50.922;4.760;2023-08-01T04:42:35;18.10;92.20
20672;DHT22;10495;50.922;4.760;2023-08-01T04:45:00;18.10;92.10
20672;DHT22;10495;50.922;4.760;2023-08-01T04:47:26;18.10;92.00
20672;DHT22;10495;50.922;4.760;2023-08-01T04:49:52;18.20;91.90
20672;DHT22;10495;50.922;4.760;2023-08-01T04:52:17;18.10;92.10
20672;DHT22;10495;50.922;4.760;2023-08-01T04:54:44;18.10;92.10
20672;DHT22;10495;50.922;4.760;2023-08-01T04:57:10;18.20;92.00
20672;DHT22;10495;50.922;4.760;2023-08-01T04:59:36;18.30;91.80
20672;DHT22;10495;50.922;4.760;2023-08-01T05:02:01;18.30;91.60
20672;DHT22;10495;50.922;4.760;2023-08-01T05:04:27;18.20;91.90
20672;DHT22;10495;50.922;4.760;2023-08-01T05:06:52;18.20;91.90
20672;DHT22;10495;50.922;4.760;2023-08-01T05:09:18;18.10;91.90
20672;DHT22;10495;50.922;4.760;2023-08-01T05:11:44;18.20;91.90
20672;DHT22;10495;50.922;4.760;2023-08-01T05:14:09;18.20;91.90
20672;DHT22;10495;50.922;4.760;2023-08-01T05:16:35;18.20;91.90
20672;DHT22;10495;50.922;4.760;2023-08-01T05:19:00;18.30;91.70
20672;DHT22;10495;50.922;4.760;2023-08-01T05:21:26;18.30;91.60
20672;DHT22;10495;50.922;4.760;2023-08-01T05:23:52;18.40;91.70
20672;DHT22;10495;50.922;4.760;2023-08-01T05:26:17;18.40;91.60
20672;DHT22;10495;50.922;4.760;2023-08-01T05:28:43;18.30;91.70
20672;DHT22;10495;50.922;4.760;2023-08-01T05:31:08;18.40;91.60
20672;DHT22;10495;50.922;4.760;2023-08-01T05:33:34;18.40;91.50
20672;DHT22;10495;50.922;4.760;2023-08-01T05:36:00;18.50;91.20
20672;DHT22;10495;50.922;4.760;2023-08-01T05:38:26;18.40;91.20
20672;DHT22;10495;50.922;4.760;2023-08-01T05:40:52;18.40;91.30
20672;DHT22;10495;50.922;4.760;2023-08-01T05:43:17;18.60;91.20
20672;DHT22;10495;50.922;4.760;2023-08-01T05:45:43;18.60;91.10
20672;DHT22;10495;50.922;4.760;2023-08-01T05:48:09;18.70;91.20
20672;DHT22;10495;50.922;4.760;2023-08-01T05:50:36;18.90;91.30
20672;DHT22;10495;50.922;4.760;2023-08-01T05:53:01;19.20;91.40
20672;DHT22;10495;50.922;4.760;2023-08-01T05:55:27;19.50;90.50
20672;DHT22;10495;50.922;4.760;2023-08-01T05:57:52;19.60;90.20
20672;DHT22;10495;50.922;4.760;2023-08-01T06:00:19;19.60;88.80
20672;DHT22;10495;50.922;4.760;2023-08-01T06:02:47;19.50;89.70
20672;DHT22;10495;50.922;4.760;2023-08-01T06:05:13;19.50;90.00
20672;DHT22;10495;50.922;4.760;2023-08-01T06:07:39;19.40;90.00
20672;DHT22;10495;50.922;4.760;2023-08-01T06:10:05;19.50;90.00
20672;DHT22;10495;50.922;4.760;2023-08-01T06:12:31;19.50;90.20
20672;DHT22;10495;50.922;4.760;2023-08-01T06:14:56;19.50;89.90
20672;DHT22;10495;50.922;4.760;2023-08-01T06:17:22;19.40;90.10
20672;DHT22;10495;50.922;4.760;2023-08-01T06:19:47;19.40;89.80
20672;DHT22;10495;50.922;4.760;2023-08-01T06:22:15;19.40;90.10
20672;DHT22;10495;50.922;4.760;2023-08-01T06:24:41;19.30;90.00
20672;DHT22;10495;50.922;4.760;2023-08-01T06:27:06;19.40;89.30
20672;DHT22;10495;50.922;4.760;2023-08-01T06:29:32;19.20;90.00
20672;DHT22;10495;50.922;4.760;2023-08-01T06:31:58;19.30;90.20
20672;DHT22;10495;50.922;4.760;2023-08-01T06:34:23;19.40;90.30
20672;DHT22;10495;50.922;4.760;2023-08-01T06:36:50;19.50;90.30
20672;DHT22;10495;50.922;4.760;2023-08-01T06:39:16;19.60;90.50
20672;DHT22;10495;50.922;4.760;2023-08-01T06:41:41;19.70;90.30
20672;DHT22;10495;50.922;4.760;2023-08-01T06:44:07;19.70;90.20
20672;DHT22;10495;50.922;4.760;2023-08-01T06:46:32;19.70;90.20
20672;DHT22;10495;50.922;4.760;2023-08-01T06:48:58;19.80;90.00
20672;DHT22;10495;50.922;4.760;2023-08-01T06:51:24;19.80;90.00
20672;DHT22;10495;50.922;4.760;2023-08-01T06:53:49;19.90;89.60
20672;DHT22;10495;50.922;4.760;2023-08-01T06:56:15;20.00;88.30
20672;DHT22;10495;50.922;4.760;2023-08-01T06:58:40;19.90;89.00
20672;DHT22;10495;50.922;4.760;2023-08-01T07:01:06;19.90;89.40
20672;DHT22;10495;50.922;4.760;2023-08-01T07:03:32;20.00;88.40
20672;DHT22;10495;50.922;4.760;2023-08-01T07:05:57;20.00;88.20
20672;DHT22;10495;50.922;4.760;2023-08-01T07:08:23;20.10;88.10
20672;DHT22;10495;50.922;4.760;2023-08-01T07:10:49;20.10;87.70
20672;DHT22;10495;50.922;4.760;2023-08-01T07:13:14;20.00;87.80
20672;DHT22;10495;50.922;4.760;2023-08-01T07:15:41;19.90;88.70
20672;DHT22;10495;50.922;4.760;2023-08-01T07:18:07;20.00;88.30
20672;DHT22;10495;50.922;4.760;2023-08-01T07:20:33;20.00;88.50
20672;DHT22;10495;50.922;4.760;2023-08-01T07:22:58;20.10;88.40
20672;DHT22;10495;50.922;4.760;2023-08-01T07:25:24;20.30;89.50
20672;DHT22;10495;50.922;4.760;2023-08-01T07:27:50;20.70;89.00
20672;DHT22;10495;50.922;4.760;2023-08-01T07:30:16;20.90;85.50
20672;DHT22;10495;50.922;4.760;2023-08-01T07:32:42;21.00;85.20
20672;DHT22;10495;50.922;4.760;2023-08-01T07:35:09;21.00;85.50
20672;DHT22;10495;50.922;4.760;2023-08-01T07:37:34;21.10;85.20
20672;DHT22;10495;50.922;4.760;2023-08-01T07:40:00;21.30;84.70
20672;DHT22;10495;50.922;4.760;2023-08-01T07:42:26;21.40;84.50
20672;DHT22;10495;50.922;4.760;2023-08-01T07:44:52;21.40;83.70
20672;DHT22;10495;50.922;4.760;2023-08-01T07:47:17;21.40;82.10
20672;DHT22;10495;50.922;4.760;2023-08-01T07:49:43;21.40;82.70
20672;DHT22;10495;50.922;4.760;2023-08-01T07:52:08;21.30;83.80
20672;DHT22;10495;50.922;4.760;2023-08-01T07:54:35;21.40;84.60
20672;DHT22;10495;50.922;4.760;2023-08-01T07:57:00;21.60;83.10
20672;DHT22;10495;50.922;4.760;2023-08-01T07:59:26;21.60;80.90
20672;DHT22;10495;50.922;4.760;2023-08-01T08:01:51;21.60;81.80
20672;DHT22;10495;50.922;4.760;2023-08-01T08:04:18;21.50;80.50
20672;DHT22;10495;50.922;4.760;2023-08-01T08:06:44;21.40;82.10
20672;DHT22;10495;50.922;4.760;2023-08-01T08:09:10;21.50;83.30
20672;DHT22;10495;50.922;4.760;2023-08-01T08:11:35;21.40;83.70
20672;DHT22;10495;50.922;4.760;2023-08-01T08:14:01;21.70;83.80
20672;DHT22;10495;50.922;4.760;2023-08-01T08:16:26;21.80;82.60
20672;DHT22;10495;50.922;4.760;2023-08-01T08:18:52;21.90;80.70
20672;DHT22;10495;50.922;4.760;2023-08-01T08:21:18;21.80;80.40
20672;DHT22;10495;50.922;4.760;2023-08-01T08:23:43;21.80;80.00
20672;DHT22;10495;50.922;4.760;2023-08-01T08:26:09;21.80;80.10
20672;DHT22;10495;50.922;4.760;2023-08-01T08:28:35;21.70;81.50
20672;DHT22;10495;50.922;4.760;2023-08-01T08:31:01;21.80;80.30
20672;DHT22;10495;50.922;4.760;2023-08-01T08:33:29;22.20;81.40
20672;DHT22;10495;50.922;4.760;2023-08-01T08:35:54;22.60;81.60
20672;DHT22;10495;50.922;4.760;2023-08-01T08:38:20;23.10;79.30
20672;DHT22;10495;50.922;4.760;2023-08-01T08:41:02;23.40;77.40
20672;DHT22;10495;50.922;4.760;2023-08-01T08:43:31;23.60;79.40
20672;DHT22;10495;50.922;4.760;2023-08-01T08:46:00;24.20;77.30
20672;DHT22;10495;50.922;4.760;2023-08-01T08:48:26;24.60;74.20
20672;DHT22;10495;50.922;4.760;2023-08-01T08:50:55;24.70;73.50
20672;DHT22;10495;50.922;4.760;2023-08-01T08:53:22;24.80;73.40
20672;DHT22;10495;50.922;4.760;2023-08-01T08:55:48;24.80;73.30
20672;DHT22;10495;50.922;4.760;2023-08-01T08:58:15;24.80;73.70
20672;DHT22;10495;50.922;4.760;2023-08-01T09:00:41;25.00;72.80
20672;DHT22;10495;50.922;4.760;2023-08-01T09:03:07;24.80;73.20
20672;DHT22;10495;50.922;4.760;2023-08-01T09:05:48;25.00;71.40
20672;DHT22;10495;50.922;4.760;2023-08-01T09:08:21;24.40;70.10
20672;DHT22;10495;50.922;4.760;2023-08-01T09:10:49;24.60;73.20
20672;DHT22;10495;50.922;4.760;2023-08-01T09:13:15;24.60;71.90
20672;DHT22;10495;50.922;4.760;2023-08-01T09:15:42;24.40;71.50
20672;DHT22;10495;50.922;4.760;2023-08-01T09:18:10;24.40;72.80
20672;DHT22;10495;50.922;4.760;2023-08-01T09:20:49;24.40;73.60
20672;DHT22;10495;50.922;4.760;2023-08-01T09:23:16;24.70;74.10
20672;DHT22;10495;50.922;4.760;2023-08-01T09:25:43;25.00;70.60
20672;DHT22;10495;50.922;4.760;2023-08-01T09:28:19;25.30;70.90
20672;DHT22;10495;50.922;4.760;2023-08-01T09:30:53;25.90;68.00
20672;DHT22;10495;50.922;4.760;2023-08-01T09:33:23;26.20;68.00
20672;DHT22;10495;50.922;4.760;2023-08-01T09:35:52;26.50;69.10
20672;DHT22;10495;50.922;4.760;2023-08-01T09:38:18;26.40;65.30
20672;DHT22;10495;50.922;4.760;2023-08-01T09:40:45;26.40;64.40
20672;DHT22;10495;50.922;4.760;2023-08-01T09:43:12;26.40;64.20
20672;DHT22;10495;50.922;4.760;2023-08-01T09:45:37;26.10;64.40
20672;DHT22;10495;50.922;4.760;2023-08-01T09:48:25;25.80;63.40
20672;DHT22;10495;50.922;4.760;2023-08-01T09:50:51;25.70;65.40
20672;DHT22;10495;50.922;4.760;2023-08-01T09:53:55;25.70;67.20
20672;DHT22;10495;50.922;4.760;2023-08-01T09:56:30;25.60;66.30
20672;DHT22;10495;50.922;4.760;2023-08-01T09:59:41;25.40;64.40
20672;DHT22;10495;50.922;4.760;2023-08-01T10:02:32;25.60;68.20
20672;DHT22;10495;50.922;4.760;2023-08-01T10:05:31;26.10;64.80
20672;DHT22;10495;50.922;4.760;2023-08-01T10:08:22;26.50;64.30
20672;DHT22;10495;50.922;4.760;2023-08-01T10:10:50;26.70;63.50
20672;DHT22;10495;50.922;4.760;2023-08-01T10:13:20;26.90;64.20
20672;DHT22;10495;50.922;4.760;2023-08-01T10:15:50;27.00;61.90
20672;DHT22;10495;50.922;4.760;2023-08-01T10:18:17;27.20;61.30
20672;DHT22;10495;50.922;4.760;2023-08-01T10:20:43;27.30;59.80
20672;DHT22;10495;50.922;4.760;2023-08-01T10:23:10;27.40;61.50
20672;DHT22;10495;50.922;4.760;2023-08-01T10:25:37;27.70;61.20
20672;DHT22;10495;50.922;4.760;2023-08-01T10:28:05;28.10;59.40
20672;DHT22;10495;50.922;4.760;2023-08-01T10:30:31;28.40;59.60
20672;DHT22;10495;50.922;4.760;2023-08-01T10:32:58;28.30;59.30
20672;DHT22;10495;50.922;4.760;2023-08-01T10:35:38;28.20;60.20
20672;DHT22;10495;50.922;4.760;2023-08-01T10:38:06;27.70;59.10
20672;DHT22;10495;50.922;4.760;2023-08-01T10:40:42;27.20;58.90
20672;DHT22;10495;50.922;4.760;2023-08-01T10:43:24;26.80;59.30
20672;DHT22;10495;50.922;4.760;2023-08-01T10:46:05;26.60;58.90
20672;DHT22;10495;50.922;4.760;2023-08-01T10:48:31;26.40;59.70
20672;DHT22;10495;50.922;4.760;2023-08-01T10:50:57;26.20;59.20
20672;DHT22;10495;50.922;4.760;2023-08-01T10:53:23;26.20;59.80
20672;DHT22;10495;50.922;4.760;2023-08-01T10:55:49;26.00;59.50
20672;DHT22;10495;50.922;4.760;2023-08-01T10:58:15;25.90;59.70
20672;DHT22;10495;50.922;4.760;2023-08-01T11:00:43;25.90;61.90
20672;DHT22;10495;50.922;4.760;2023-08-01T11:03:09;25.70;61.10
20672;DHT22;10495;50.922;4.760;2023-08-01T11:05:35;25.80;62.00
20672;DHT22;10495;50.922;4.760;2023-08-01T11:08:03;25.80;61.10
20672;DHT22;10495;50.922;4.760;2023-08-01T11:10:30;25.70;59.90
20672;DHT22;10495;50.922;4.760;2023-08-01T11:12:57;25.60;59.50
20672;DHT22;10495;50.922;4.760;2023-08-01T11:15:23;25.60;60.50
20672;DHT22;10495;50.922;4.760;2023-08-01T11:17:53;25.70;60.40
20672;DHT22;10495;50.922;4.760;2023-08-01T11:20:21;25.80;61.40
20672;DHT22;10495;50.922;4.760;2023-08-01T11:22:58;25.60;62.60
20672;DHT22;10495;50.922;4.760;2023-08-01T11:28:09;25.50;61.90
20672;DHT22;10495;50.922;4.760;2023-08-01T11:30:35;25.50;61.80
20672;DHT22;10495;50.922;4.760;2023-08-01T11:33:01;25.60;60.60
20672;DHT22;10495;50.922;4.760;2023-08-01T11:35:28;25.60;59.40
20672;DHT22;10495;50.922;4.760;2023-08-01T11:37:55;25.50;58.60
20672;DHT22;10495;50.922;4.760;2023-08-01T11:40:23;25.30;59.30
20672;DHT22;10495;50.922;4.760;2023-08-01T11:42:50;25.10;60.00
20672;DHT22;10495;50.922;4.760;2023-08-01T11:45:19;25.00;59.50
20672;DHT22;10495;50.922;4.760;2023-08-01T11:47:46;24.50;58.40
20672;DHT22;10495;50.922;4.760;2023-08-01T11:50:13;24.20;60.70
20672;DHT22;10495;50.922;4.760;2023-08-01T11:52:39;24.20;61.60
20672;DHT22;10495;50.922;4.760;2023-08-01T11:55:05;24.10;62.60
20672;DHT22;10495;50.922;4.760;2023-08-01T11:57:30;23.90;63.10
20672;DHT22;10495;50.922;4.760;2023-08-01T11:59:56;23.70;63.00
20672;DHT22;10495;50.922;4.760;2023-08-01T12:02:27;23.60;62.60
20672;DHT22;10495;50.922;4.760;2023-08-01T12:04:54;23.50;64.00
20672;DHT22;10495;50.922;4.760;2023-08-01T12:07:20;23.50;65.00
20672;DHT22;10495;50.922;4.760;2023-08-01T12:09:56;23.60;63.90
20672;DHT22;10495;50.922;4.760;2023-08-01T12:12:23;23.80;63.80
20672;DHT22;10495;50.922;4.760;2023-08-01T12:14:48;23.80;63.90
20672;DHT22;10495;50.922;4.760;2023-08-01T12:17:14;23.90;65.40
20672;DHT22;10495;50.922;4.760;2023-08-01T12:19:40;24.30;65.70
20672;DHT22;10495;50.922;4.760;2023-08-01T12:22:05;24.40;64.30
20672;DHT22;10495;50.922;4.760;2023-08-01T12:24:31;24.50;63.30
20672;DHT22;10495;50.922;4.760;2023-08-01T12:26:58;24.60;64.30
20672;DHT22;10495;50.922;4.760;2023-08-01T12:29:24;24.60;63.70
20672;DHT22;10495;50.922;4.760;2023-08-01T12:31:49;24.60;64.40
20672;DHT22;10495;50.922;4.760;2023-08-01T12:34:15;24.50;63.30
20672;DHT22;10495;50.922;4.760;2023-08-01T12:36:41;24.50;63.00
20672;DHT22;10495;50.922;4.760;2023-08-01T12:39:06;24.30;63.30
20672;DHT22;10495;50.922;4.760;2023-08-01T12:41:36;24.40;65.30
20672;DHT22;10495;50.922;4.760;2023-08-01T12:44:02;24.40;65.30
20672;DHT22;10495;50.922;4.760;2023-08-01T12:46:28;24.40;65.00
20672;DHT22;10495;50.922;4.760;2023-08-01T12:48:54;24.50;65.10
20672;DHT22;10495;50.922;4.760;2023-08-01T12:51:19;24.60;66.50
20672;DHT22;10495;50.922;4.760;2023-08-01T12:53:45;24.80;65.60
20672;DHT22;10495;50.922;4.760;2023-08-01T12:56:11;24.70;61.10
20672;DHT22;10495;50.922;4.760;2023-08-01T12:58:36;24.60;62.70
20672;DHT22;10495;50.922;4.760;2023-08-01T13:01:03;24.60;63.00
20672;DHT22;10495;50.922;4.760;2023-08-01T13:03:29;24.60;62.50
20672;DHT22;10495;50.922;4.760;2023-08-01T13:05:55;24.60;59.60
20672;DHT22;10495;50.922;4.760;2023-08-01T13:08:22;24.30;59.50
20672;DHT22;10495;50.922;4.760;2023-08-01T13:10:48;23.80;60.20
20672;DHT22;10495;50.922;4.760;2023-08-01T13:13:18;23.60;62.30
20672;DHT22;10495;50.922;4.760;2023-08-01T13:15:43;23.60;61.70
20672;DHT22;10495;50.922;4.760;2023-08-01T13:18:10;23.50;62.20
20672;DHT22;10495;50.922;4.760;2023-08-01T13:20:36;23.50;63.00
20672;DHT22;10495;50.922;4.760;2023-08-01T13:23:02;23.60;61.40
20672;DHT22;10495;50.922;4.760;2023-08-01T13:25:28;23.60;64.10
20672;DHT22;10495;50.922;4.760;2023-08-01T13:27:54;23.90;62.90
20672;DHT22;10495;50.922;4.760;2023-08-01T13:30:20;24.00;61.40
20672;DHT22;10495;50.922;4.760;2023-08-01T13:32:46;23.90;61.50
20672;DHT22;10495;50.922;4.760;2023-08-01T13:35:12;23.90;60.90
20672;DHT22;10495;50.922;4.760;2023-08-01T13:37:38;23.90;62.00
20672;DHT22;10495;50.922;4.760;2023-08-01T13:40:04;24.00;62.50
20672;DHT22;10495;50.922;4.760;2023-08-01T13:42:30;24.00;62.00
20672;DHT22;10495;50.922;4.760;2023-08-01T13:44:56;24.10;62.00
20672;DHT22;10495;50.922;4.760;2023-08-01T13:47:23;24.10;61.40
20672;DHT22;10495;50.922;4.760;2023-08-01T13:49:48;24.20;60.50
20672;DHT22;10495;50.922;4.760;2023-08-01T13:52:14;24.20;61.70
20672;DHT22;10495;50.922;4.760;2023-08-01T13:54:39;24.20;61.40
20672;DHT22;10495;50.922;4.760;2023-08-01T13:57:06;24.20;63.50
20672;DHT22;10495;50.922;4.760;2023-08-01T13:59:32;24.10;62.40
20672;DHT22;10495;50.922;4.760;2023-08-01T14:01:57;24.20;63.20
20672;DHT22;10495;50.922;4.760;2023-08-01T14:04:23;24.20;61.10
20672;DHT22;10495;50.922;4.760;2023-08-01T14:06:48;24.00;61.60
20672;DHT22;10495;50.922;4.760;2023-08-01T14:09:14;24.00;60.60
20672;DHT22;10495;50.922;4.760;2023-08-01T14:11:40;23.70;61.80
20672;DHT22;10495;50.922;4.760;2023-08-01T14:14:06;23.50;62.70
20672;DHT22;10495;50.922;4.760;2023-08-01T14:16:31;23.50;63.20
20672;DHT22;10495;50.922;4.760;2023-08-01T14:18:58;23.50;63.60
20672;DHT22;10495;50.922;4.760;2023-08-01T14:21:24;23.50;61.80
20672;DHT22;10495;50.922;4.760;2023-08-01T14:23:50;23.30;63.60
20672;DHT22;10495;50.922;4.760;2023-08-01T14:26:16;23.00;63.00
20672;DHT22;10495;50.922;4.760;2023-08-01T14:28:41;23.00;64.00
20672;DHT22;10495;50.922;4.760;2023-08-01T14:31:07;22.60;63.80
20672;DHT22;10495;50.922;4.760;2023-08-01T14:33:33;22.40;66.80
20672;DHT22;10495;50.922;4.760;2023-08-01T14:35:59;22.50;67.00
20672;DHT22;10495;50.922;4.760;2023-08-01T14:38:25;22.80;66.80
20672;DHT22;10495;50.922;4.760;2023-08-01T14:40:52;22.70;66.70
20672;DHT22;10495;50.922;4.760;2023-08-01T14:43:18;22.70;66.70
20672;DHT22;10495;50.922;4.760;2023-08-01T14:45:43;22.70;67.50
20672;DHT22;10495;50.922;4.760;2023-08-01T14:48:09;22.50;66.10
20672;DHT22;10495;50.922;4.760;2023-08-01T14:50:35;22.50;67.90
20672;DHT22;10495;50.922;4.760;2023-08-01T14:53:02;22.40;65.60
20672;DHT22;10495;50.922;4.760;2023-08-01T14:55:28;22.30;66.70
20672;DHT22;10495;50.922;4.760;2023-08-01T14:57:54;22.20;68.30
20672;DHT22;10495;50.922;4.760;2023-08-01T15:00:20;22.00;68.60
20672;DHT22;10495;50.922;4.760;2023-08-01T15:02:46;22.00;69.50
20672;DHT22;10495;50.922;4.760;2023-08-01T15:05:13;21.60;69.70
20672;DHT22;10495;50.922;4.760;2023-08-01T15:07:39;21.30;70.50
20672;DHT22;10495;50.922;4.760;2023-08-01T15:10:05;21.30;71.70
20672;DHT22;10495;50.922;4.760;2023-08-01T15:12:31;21.30;72.70
20672;DHT22;10495;50.922;4.760;2023-08-01T15:14:56;21.20;72.50
20672;DHT22;10495;50.922;4.760;2023-08-01T15:17:23;21.30;72.50
20672;DHT22;10495;50.922;4.760;2023-08-01T15:19:49;21.30;71.90
20672;DHT22;10495;50.922;4.760;2023-08-01T15:22:16;21.30;72.50
20672;DHT22;10495;50.922;4.760;2023-08-01T15:24:42;21.40;71.60
20672;DHT22;10495;50.922;4.760;2023-08-01T15:27:07;21.60;71.60
20672;DHT22;10495;50.922;4.760;2023-08-01T15:29:33;21.80;71.50
20672;DHT22;10495;50.922;4.760;2023-08-01T15:31:59;21.80;71.40